sensor_id;sensor_type;location;lat;lon;timestamp;P1;durP1;ratioP1;P2;durP2;ratioP2
28577;SDS011;15769;52.248;15.818;2022-10-19T00:01:07;19.52;;;12.15;;
28577;SDS011;15769;52.248;15.818;2022-10-19T00:06:46;21.65;;;13.07;;
28577;SDS011;15769;52.248;15.818;2022-10-19T00:12:55;27.45;;;16.02;;
28577;SDS011;15769;52.248;15.818;2022-10-19T00:18:39;24.60;;;14.43;;
28577;SDS011;15769;52.248;15.818;2022-10-19T00:23:57;26.17;;;16.13;;
28577;SDS011;15769;52.248;15.818;2022-10-19T00:29:36;24.90;;;14.57;;
28577;SDS011;15769;52.248;15.818;2022-10-19T00:35:15;25.27;;;14.52;;
28577;SDS011;15769;52.248;15.818;2022-10-19T00:40:46;23.45;;;13.85;;
28577;SDS011;15769;52.248;15.818;2022-10-19T00:45:52;21.85;;;12.55;;
28577;SDS011;15769;52.248;15.818;2022-10-19T00:51:00;20.13;;;12.90;;
28577;SDS011;15769;52.248;15.818;2022-10-19T00:56:33;19.10;;;11.55;;
28577;SDS011;15769;52.248;15.818;2022-10-19T01:02:36;24.20;;;12.30;;
28577;SDS011;15769;52.248;15.818;2022-10-19T01:07:40;19.42;;;10.68;;
28577;SDS011;15769;52.248;15.818;2022-10-19T01:13:01;21.65;;;11.18;;
28577;SDS011;15769;52.248;15.818;2022-10-19T01:18:26;18.48;;;10.88;;
28577;SDS011;15769;52.248;15.818;2022-10-19T01:34:39;16.77;;;9.50;;
28577;SDS011;15769;52.248;15.818;2022-10-19T01:40:23;17.17;;;9.70;;
28577;SDS011;15769;52.248;15.818;2022-10-19T01:45:30;16.55;;;9.10;;
28577;SDS011;15769;52.248;15.818;2022-10-19T01:50:42;16.45;;;8.48;;
28577;SDS011;15769;52.248;15.818;2022-10-19T01:55:50;12.60;;;7.30;;
28577;SDS011;15769;52.248;15.818;2022-10-19T02:00:54;12.30;;;7.40;;
28577;SDS011;15769;52.248;15.818;2022-10-19T02:05:58;11.77;;;7.65;;
28577;SDS011;15769;52.248;15.818;2022-10-19T02:11:01;10.27;;;6.38;;
28577;SDS011;15769;52.248;15.818;2022-10-19T02:16:05;15.07;;;6.83;;
28577;SDS011;15769;52.248;15.818;2022-10-19T02:21:11;13.57;;;7.30;;
28577;SDS011;15769;52.248;15.818;2022-10-19T02:26:13;11.88;;;6.95;;
28577;SDS011;15769;52.248;15.818;2022-10-19T02:31:15;8.63;;;5.43;;
28577;SDS011;15769;52.248;15.818;2022-10-19T02:36:18;9.48;;;5.68;;
28577;SDS011;15769;52.248;15.818;2022-10-19T02:41:32;13.05;;;6.65;;
28577;SDS011;15769;52.248;15.818;2022-10-19T02:46:38;10.27;;;5.80;;
28577;SDS011;15769;52.248;15.818;2022-10-19T02:51:59;7.95;;;5.07;;
28577;SDS011;15769;52.248;15.818;2022-10-19T02:57:15;8.48;;;5.45;;
28577;SDS011;15769;52.248;15.818;2022-10-19T03:02:19;11.25;;;5.65;;
28577;SDS011;15769;52.248;15.818;2022-10-19T03:07:22;13.17;;;5.43;;
28577;SDS011;15769;52.248;15.818;2022-10-19T03:12:24;9.23;;;5.18;;
28577;SDS011;15769;52.248;15.818;2022-10-19T03:17:28;10.77;;;4.77;;
28577;SDS011;15769;52.248;15.818;2022-10-19T03:22:31;8.07;;;4.60;;
28577;SDS011;15769;52.248;15.818;2022-10-19T03:27:33;9.60;;;4.68;;
28577;SDS011;15769;52.248;15.818;2022-10-19T03:32:36;10.30;;;4.87;;
28577;SDS011;15769;52.248;15.818;2022-10-19T03:37:38;9.27;;;4.25;;
28577;SDS011;15769;52.248;15.818;2022-10-19T03:42:40;8.18;;;4.28;;
28577;SDS011;15769;52.248;15.818;2022-10-19T03:47:43;7.32;;;4.03;;
28577;SDS011;15769;52.248;15.818;2022-10-19T03:52:50;9.13;;;4.68;;
28577;SDS011;15769;52.248;15.818;2022-10-19T03:57:53;14.80;;;4.15;;
28577;SDS011;15769;52.248;15.818;2022-10-19T04:02:55;6.80;;;4.00;;
28577;SDS011;15769;52.248;15.818;2022-10-19T04:07:58;9.43;;;4.45;;
28577;SDS011;15769;52.248;15.818;2022-10-19T04:13:02;10.10;;;4.43;;
28577;SDS011;15769;52.248;15.818;2022-10-19T04:18:05;8.70;;;4.18;;
28577;SDS011;15769;52.248;15.818;2022-10-19T04:23:08;7.90;;;3.63;;
28577;SDS011;15769;52.248;15.818;2022-10-19T04:28:10;7.88;;;3.95;;
28577;SDS011;15769;52.248;15.818;2022-10-19T04:33:12;5.57;;;3.67;;
28577;SDS011;15769;52.248;15.818;2022-10-19T04:38:16;8.05;;;3.80;;
28577;SDS011;15769;52.248;15.818;2022-10-19T04:43:18;5.25;;;3.30;;
28577;SDS011;15769;52.248;15.818;2022-10-19T04:48:21;7.55;;;3.42;;
28577;SDS011;15769;52.248;15.818;2022-10-19T04:53:23;7.87;;;3.67;;
28577;SDS011;15769;52.248;15.818;2022-10-19T04:58:46;6.90;;;3.55;;
28577;SDS011;15769;52.248;15.818;2022-10-19T05:03:52;8.53;;;3.70;;
28577;SDS011;15769;52.248;15.818;2022-10-19T05:09:19;6.10;;;2.88;;
28577;SDS011;15769;52.248;15.818;2022-10-19T05:14:21;5.90;;;3.17;;
28577;SDS011;15769;52.248;15.818;2022-10-19T05:19:23;5.75;;;3.67;;
28577;SDS011;15769;52.248;15.818;2022-10-19T05:24:27;3.70;;;3.25;;
28577;SDS011;15769;52.248;15.818;2022-10-19T05:29:29;5.57;;;3.28;;
28577;SDS011;15769;52.248;15.818;2022-10-19T05:34:32;7.68;;;4.90;;
28577;SDS011;15769;52.248;15.818;2022-10-19T05:39:34;8.57;;;4.70;;
28577;SDS011;15769;52.248;15.818;2022-10-19T05:44:55;8.50;;;3.58;;
28577;SDS011;15769;52.248;15.818;2022-10-19T05:50:21;7.45;;;4.70;;
28577;SDS011;15769;52.248;15.818;2022-10-19T05:55:55;6.75;;;3.70;;
28577;SDS011;15769;52.248;15.818;2022-10-19T06:00:58;5.20;;;3.17;;
28577;SDS011;15769;52.248;15.818;2022-10-19T06:06:09;8.10;;;3.47;;
28577;SDS011;15769;52.248;15.818;2022-10-19T06:16:17;7.45;;;3.40;;
28577;SDS011;15769;52.248;15.818;2022-10-19T06:21:28;8.80;;;3.55;;
28577;SDS011;15769;52.248;15.818;2022-10-19T06:27:17;7.75;;;3.58;;
28577;SDS011;15769;52.248;15.818;2022-10-19T06:33:00;8.90;;;4.20;;
28577;SDS011;15769;52.248;15.818;2022-10-19T06:38:27;5.85;;;3.42;;
28577;SDS011;15769;52.248;15.818;2022-10-19T06:44:13;3.17;;;2.50;;
28577;SDS011;15769;52.248;15.818;2022-10-19T06:49:40;4.82;;;2.70;;
28577;SDS011;15769;52.248;15.818;2022-10-19T06:55:24;5.90;;;2.50;;
28577;SDS011;15769;52.248;15.818;2022-10-19T07:00:30;5.03;;;2.80;;
28577;SDS011;15769;52.248;15.818;2022-10-19T07:06:49;4.90;;;3.30;;
28577;SDS011;15769;52.248;15.818;2022-10-19T07:13:07;7.05;;;2.97;;
28577;SDS011;15769;52.248;15.818;2022-10-19T07:18:16;6.60;;;3.05;;
28577;SDS011;15769;52.248;15.818;2022-10-19T07:23:38;8.35;;;4.32;;
28577;SDS011;15769;52.248;15.818;2022-10-19T07:28:53;2.33;;;1.80;;
28577;SDS011;15769;52.248;15.818;2022-10-19T07:34:06;3.53;;;1.90;;
28577;SDS011;15769;52.248;15.818;2022-10-19T07:39:16;6.72;;;2.50;;
28577;SDS011;15769;52.248;15.818;2022-10-19T07:44:32;4.07;;;1.80;;
28577;SDS011;15769;52.248;15.818;2022-10-19T07:50:02;5.13;;;2.20;;
28577;SDS011;15769;52.248;15.818;2022-10-19T07:55:14;3.50;;;1.67;;
28577;SDS011;15769;52.248;15.818;2022-10-19T08:01:18;6.32;;;2.22;;
28577;SDS011;15769;52.248;15.818;2022-10-19T08:06:43;10.55;;;5.90;;
28577;SDS011;15769;52.248;15.818;2022-10-19T08:11:45;9.30;;;5.10;;
28577;SDS011;15769;52.248;15.818;2022-10-19T08:17:20;5.07;;;2.15;;
28577;SDS011;15769;52.248;15.818;2022-10-19T08:22:52;3.47;;;1.80;;
28577;SDS011;15769;52.248;15.818;2022-10-19T08:28:25;5.22;;;1.40;;
28577;SDS011;15769;52.248;15.818;2022-10-19T08:33:28;3.63;;;1.60;;
28577;SDS011;15769;52.248;15.818;2022-10-19T08:38:37;4.55;;;1.27;;
28577;SDS011;15769;52.248;15.818;2022-10-19T08:43:50;3.42;;;1.25;;
28577;SDS011;15769;52.248;15.818;2022-10-19T08:49:44;3.03;;;1.45;;
28577;SDS011;15769;52.248;15.818;2022-10-19T08:54:54;5.68;;;1.30;;
28577;SDS011;15769;52.248;15.818;2022-10-19T09:00:05;3.72;;;1.40;;
28577;SDS011;15769;52.248;15.818;2022-10-19T09:05:17;3.90;;;1.40;;
28577;SDS011;15769;52.248;15.818;2022-10-19T09:10:28;2.85;;;1.45;;
28577;SDS011;15769;52.248;15.818;2022-10-19T09:15:46;3.60;;;1.60;;
28577;SDS011;15769;52.248;15.818;2022-10-19T09:26:28;5.03;;;4.53;;
28577;SDS011;15769;52.248;15.818;2022-10-19T09:31:36;5.40;;;2.67;;
28577;SDS011;15769;52.248;15.818;2022-10-19T09:36:43;6.07;;;2.50;;
28577;SDS011;15769;52.248;15.818;2022-10-19T09:47:39;3.50;;;2.03;;
28577;SDS011;15769;52.248;15.818;2022-10-19T09:52:42;4.38;;;2.53;;
28577;SDS011;15769;52.248;15.818;2022-10-19T09:57:47;3.78;;;1.80;;
28577;SDS011;15769;52.248;15.818;2022-10-19T10:02:51;4.40;;;2.28;;
28577;SDS011;15769;52.248;15.818;2022-10-19T10:07:57;3.15;;;2.50;;
28577;SDS011;15769;52.248;15.818;2022-10-19T10:13:01;3.53;;;1.70;;
28577;SDS011;15769;52.248;15.818;2022-10-19T10:18:04;3.80;;;1.88;;
28577;SDS011;15769;52.248;15.818;2022-10-19T10:23:11;2.67;;;1.60;;
28577;SDS011;15769;52.248;15.818;2022-10-19T10:28:26;3.10;;;1.30;;
28577;SDS011;15769;52.248;15.818;2022-10-19T10:33:43;3.60;;;1.40;;
28577;SDS011;15769;52.248;15.818;2022-10-19T10:38:55;3.95;;;1.63;;
28577;SDS011;15769;52.248;15.818;2022-10-19T10:44:25;3.10;;;1.40;;
28577;SDS011;15769;52.248;15.818;2022-10-19T10:49:59;3.72;;;1.52;;
28577;SDS011;15769;52.248;15.818;2022-10-19T10:55:23;3.72;;;1.50;;
28577;SDS011;15769;52.248;15.818;2022-10-19T11:00:32;2.00;;;1.40;;
28577;SDS011;15769;52.248;15.818;2022-10-19T11:05:52;3.05;;;1.83;;
28577;SDS011;15769;52.248;15.818;2022-10-19T11:11:01;2.97;;;1.63;;
28577;SDS011;15769;52.248;15.818;2022-10-19T11:16:41;2.33;;;1.48;;
28577;SDS011;15769;52.248;15.818;2022-10-19T11:21:53;2.97;;;2.13;;
28577;SDS011;15769;52.248;15.818;2022-10-19T11:32:26;5.13;;;2.08;;
28577;SDS011;15769;52.248;15.818;2022-10-19T11:43:30;2.63;;;1.30;;
28577;SDS011;15769;52.248;15.818;2022-10-19T11:48:49;4.07;;;1.30;;
28577;SDS011;15769;52.248;15.818;2022-10-19T11:59:36;3.97;;;1.17;;
28577;SDS011;15769;52.248;15.818;2022-10-19T12:04:50;2.38;;;1.20;;
28577;SDS011;15769;52.248;15.818;2022-10-19T12:10:01;1.27;;;1.02;;
28577;SDS011;15769;52.248;15.818;2022-10-19T12:15:15;1.85;;;1.17;;
28577;SDS011;15769;52.248;15.818;2022-10-19T12:25:29;3.10;;;1.20;;
28577;SDS011;15769;52.248;15.818;2022-10-19T12:30:31;3.33;;;1.00;;
28577;SDS011;15769;52.248;15.818;2022-10-19T12:35:38;3.17;;;2.15;;
28577;SDS011;15769;52.248;15.818;2022-10-19T12:46:05;5.80;;;2.50;;
28577;SDS011;15769;52.248;15.818;2022-10-19T12:51:29;2.40;;;1.42;;
28577;SDS011;15769;52.248;15.818;2022-10-19T12:56:50;2.47;;;1.05;;
28577;SDS011;15769;52.248;15.818;2022-10-19T13:01:56;2.03;;;1.10;;
28577;SDS011;15769;52.248;15.818;2022-10-19T13:07:04;2.45;;;1.20;;
28577;SDS011;15769;52.248;15.818;2022-10-19T13:38:38;1.95;;;1.20;;
28577;SDS011;15769;52.248;15.818;2022-10-19T13:59:59;52.33;;;9.57;;
28577;SDS011;15769;52.248;15.818;2022-10-19T14:10:58;6.28;;;2.50;;
28577;SDS011;15769;52.248;15.818;2022-10-19T14:16:16;2.45;;;1.40;;
28577;SDS011;15769;52.248;15.818;2022-10-19T14:21:33;6.90;;;5.10;;
28577;SDS011;15769;52.248;15.818;2022-10-19T14:26:39;4.35;;;2.65;;
28577;SDS011;15769;52.248;15.818;2022-10-19T14:31:44;2.38;;;1.98;;
28577;SDS011;15769;52.248;15.818;2022-10-19T14:36:48;9.85;;;6.43;;
28577;SDS011;15769;52.248;15.818;2022-10-19T14:41:52;2.33;;;2.08;;
28577;SDS011;15769;52.248;15.818;2022-10-19T14:46:55;3.83;;;2.22;;
28577;SDS011;15769;52.248;15.818;2022-10-19T14:52:07;2.28;;;1.38;;
28577;SDS011;15769;52.248;15.818;2022-10-19T15:07:24;4.55;;;2.53;;
28577;SDS011;15769;52.248;15.818;2022-10-19T15:12:36;3.42;;;2.40;;
28577;SDS011;15769;52.248;15.818;2022-10-19T15:17:53;3.70;;;2.58;;
28577;SDS011;15769;52.248;15.818;2022-10-19T15:23:00;7.57;;;4.65;;
28577;SDS011;15769;52.248;15.818;2022-10-19T15:28:31;2.30;;;1.75;;
28577;SDS011;15769;52.248;15.818;2022-10-19T15:33:50;5.30;;;2.03;;
28577;SDS011;15769;52.248;15.818;2022-10-19T15:39:11;6.05;;;3.45;;
28577;SDS011;15769;52.248;15.818;2022-10-19T15:44:41;9.18;;;4.65;;
28577;SDS011;15769;52.248;15.818;2022-10-19T15:49:56;7.45;;;3.80;;
28577;SDS011;15769;52.248;15.818;2022-10-19T15:55:00;12.05;;;7.53;;
28577;SDS011;15769;52.248;15.818;2022-10-19T16:00:14;13.27;;;8.85;;
28577;SDS011;15769;52.248;15.818;2022-10-19T16:05:57;22.63;;;13.63;;
28577;SDS011;15769;52.248;15.818;2022-10-19T16:11:33;22.95;;;16.48;;
28577;SDS011;15769;52.248;15.818;2022-10-19T16:17:08;15.73;;;12.15;;
28577;SDS011;15769;52.248;15.818;2022-10-19T16:22:13;39.20;;;22.23;;
28577;SDS011;15769;52.248;15.818;2022-10-19T16:27:16;65.18;;;37.30;;
28577;SDS011;15769;52.248;15.818;2022-10-19T16:32:18;55.50;;;33.90;;
28577;SDS011;15769;52.248;15.818;2022-10-19T16:37:20;111.70;;;54.60;;
28577;SDS011;15769;52.248;15.818;2022-10-19T16:42:22;161.48;;;84.60;;
28577;SDS011;15769;52.248;15.818;2022-10-19T16:47:31;200.30;;;87.65;;
28577;SDS011;15769;52.248;15.818;2022-10-19T16:52:34;83.63;;;45.60;;
28577;SDS011;15769;52.248;15.818;2022-10-19T16:57:36;80.55;;;48.92;;
28577;SDS011;15769;52.248;15.818;2022-10-19T17:02:38;86.57;;;51.50;;
28577;SDS011;15769;52.248;15.818;2022-10-19T17:07:46;68.72;;;38.25;;
28577;SDS011;15769;52.248;15.818;2022-10-19T17:12:54;83.75;;;43.30;;
28577;SDS011;15769;52.248;15.818;2022-10-19T17:17:58;58.60;;;36.20;;
28577;SDS011;15769;52.248;15.818;2022-10-19T17:23:01;50.80;;;29.92;;
28577;SDS011;15769;52.248;15.818;2022-10-19T17:28:03;48.10;;;26.95;;
28577;SDS011;15769;52.248;15.818;2022-10-19T17:33:07;33.95;;;19.58;;
28577;SDS011;15769;52.248;15.818;2022-10-19T17:38:15;30.77;;;15.00;;
28577;SDS011;15769;52.248;15.818;2022-10-19T17:43:17;36.83;;;20.25;;
28577;SDS011;15769;52.248;15.818;2022-10-19T17:48:19;46.83;;;27.38;;
28577;SDS011;15769;52.248;15.818;2022-10-19T17:53:24;71.05;;;36.30;;
28577;SDS011;15769;52.248;15.818;2022-10-19T17:58:27;111.80;;;56.87;;
28577;SDS011;15769;52.248;15.818;2022-10-19T18:03:30;257.60;;;85.57;;
28577;SDS011;15769;52.248;15.818;2022-10-19T18:08:36;227.45;;;80.88;;
28577;SDS011;15769;52.248;15.818;2022-10-19T18:13:40;161.40;;;64.32;;
28577;SDS011;15769;52.248;15.818;2022-10-19T18:18:44;137.95;;;58.38;;
28577;SDS011;15769;52.248;15.818;2022-10-19T18:23:49;137.20;;;58.15;;
28577;SDS011;15769;52.248;15.818;2022-10-19T18:28:53;130.00;;;57.45;;
28577;SDS011;15769;52.248;15.818;2022-10-19T18:34:00;128.95;;;56.33;;
28577;SDS011;15769;52.248;15.818;2022-10-19T18:39:05;127.38;;;55.75;;
28577;SDS011;15769;52.248;15.818;2022-10-19T18:44:10;120.13;;;47.67;;
28577;SDS011;15769;52.248;15.818;2022-10-19T18:49:14;268.70;;;80.38;;
28577;SDS011;15769;52.248;15.818;2022-10-19T18:54:17;173.20;;;50.90;;
28577;SDS011;15769;52.248;15.818;2022-10-19T18:59:21;91.45;;;31.15;;
28577;SDS011;15769;52.248;15.818;2022-10-19T19:04:25;42.67;;;20.45;;
28577;SDS011;15769;52.248;15.818;2022-10-19T19:09:27;134.57;;;35.40;;
28577;SDS011;15769;52.248;15.818;2022-10-19T19:14:30;47.67;;;17.25;;
28577;SDS011;15769;52.248;15.818;2022-10-19T19:19:37;40.05;;;19.25;;
28577;SDS011;15769;52.248;15.818;2022-10-19T19:24:47;59.60;;;24.38;;
28577;SDS011;15769;52.248;15.818;2022-10-19T19:29:54;60.53;;;27.90;;
28577;SDS011;15769;52.248;15.818;2022-10-19T19:34:59;57.28;;;29.70;;
28577;SDS011;15769;52.248;15.818;2022-10-19T19:40:03;52.83;;;26.23;;
28577;SDS011;15769;52.248;15.818;2022-10-19T19:45:06;61.60;;;29.88;;
28577;SDS011;15769;52.248;15.818;2022-10-19T19:50:27;117.15;;;57.97;;
28577;SDS011;15769;52.248;15.818;2022-10-19T19:56:11;86.95;;;45.30;;
28577;SDS011;15769;52.248;15.818;2022-10-19T20:01:16;64.43;;;30.48;;
28577;SDS011;15769;52.248;15.818;2022-10-19T20:06:20;91.10;;;46.10;;
28577;SDS011;15769;52.248;15.818;2022-10-19T20:11:27;91.47;;;46.65;;
28577;SDS011;15769;52.248;15.818;2022-10-19T20:16:30;93.15;;;41.75;;
28577;SDS011;15769;52.248;15.818;2022-10-19T20:21:35;74.20;;;37.17;;
28577;SDS011;15769;52.248;15.818;2022-10-19T20:26:39;87.88;;;39.28;;
28577;SDS011;15769;52.248;15.818;2022-10-19T20:31:42;89.43;;;37.92;;
28577;SDS011;15769;52.248;15.818;2022-10-19T20:36:44;86.20;;;36.90;;
28577;SDS011;15769;52.248;15.818;2022-10-19T20:41:48;88.67;;;37.37;;
28577;SDS011;15769;52.248;15.818;2022-10-19T20:46:50;88.60;;;36.42;;
28577;SDS011;15769;52.248;15.818;2022-10-19T20:51:52;86.93;;;38.25;;
28577;SDS011;15769;52.248;15.818;2022-10-19T20:56:55;92.95;;;40.13;;
28577;SDS011;15769;52.248;15.818;2022-10-19T21:01:57;78.50;;;34.30;;
28577;SDS011;15769;52.248;15.818;2022-10-19T21:07:03;68.90;;;32.80;;
28577;SDS011;15769;52.248;15.818;2022-10-19T21:12:06;59.73;;;27.03;;
28577;SDS011;15769;52.248;15.818;2022-10-19T21:17:08;49.03;;;23.90;;
28577;SDS011;15769;52.248;15.818;2022-10-19T21:22:10;40.53;;;20.48;;
28577;SDS011;15769;52.248;15.818;2022-10-19T21:27:14;42.00;;;19.40;;
28577;SDS011;15769;52.248;15.818;2022-10-19T21:32:16;44.10;;;22.73;;
28577;SDS011;15769;52.248;15.818;2022-10-19T21:37:20;51.15;;;25.23;;
28577;SDS011;15769;52.248;15.818;2022-10-19T21:42:22;44.47;;;21.47;;
28577;SDS011;15769;52.248;15.818;2022-10-19T21:47:24;45.05;;;21.67;;
28577;SDS011;15769;52.248;15.818;2022-10-19T21:52:26;45.65;;;20.52;;
28577;SDS011;15769;52.248;15.818;2022-10-19T21:57:29;46.63;;;20.17;;
28577;SDS011;15769;52.248;15.818;2022-10-19T22:02:31;37.95;;;18.48;;
28577;SDS011;15769;52.248;15.818;2022-10-19T22:07:33;35.28;;;16.20;;
28577;SDS011;15769;52.248;15.818;2022-10-19T22:12:36;28.70;;;13.57;;
28577;SDS011;15769;52.248;15.818;2022-10-19T22:17:39;25.20;;;12.80;;
28577;SDS011;15769;52.248;15.818;2022-10-19T22:22:41;35.90;;;15.98;;
28577;SDS011;15769;52.248;15.818;2022-10-19T22:32:47;29.85;;;13.57;;
28577;SDS011;15769;52.248;15.818;2022-10-19T22:37:49;65.50;;;19.50;;
28577;SDS011;15769;52.248;15.818;2022-10-19T22:55:14;31.63;;;11.55;;
28577;SDS011;15769;52.248;15.818;2022-10-19T23:00:17;16.02;;;7.85;;
28577;SDS011;15769;52.248;15.818;2022-10-19T23:05:19;28.33;;;11.80;;
28577;SDS011;15769;52.248;15.818;2022-10-19T23:10:21;22.48;;;9.50;;
28577;SDS011;15769;52.248;15.818;2022-10-19T23:15:25;17.38;;;7.97;;
28577;SDS011;15769;52.248;15.818;2022-10-19T23:20:28;14.53;;;7.93;;
28577;SDS011;15769;52.248;15.818;2022-10-19T23:25:30;14.45;;;6.72;;
28577;SDS011;15769;52.248;15.818;2022-10-19T23:30:53;12.38;;;6.68;;
28577;SDS011;15769;52.248;15.818;2022-10-19T23:36:02;13.55;;;7.05;;
28577;SDS011;15769;52.248;15.818;2022-10-19T23:41:05;13.23;;;7.65;;
28577;SDS011;15769;52.248;15.818;2022-10-19T23:46:08;16.05;;;7.68;;
28577;SDS011;15769;52.248;15.818;2022-10-19T23:51:12;20.70;;;10.83;;
28577;SDS011;15769;52.248;15.818;2022-10-19T23:56:19;24.42;;;11.20;;
